< < Back
Terminal Aerodrome Forecast


Current Version              Previous Versions:   1  2  3  4  5  6  7  8  9  

Terminal Aerodrome Forecast

960
FTUS42 KMLB 191700
TAFDAB
TAF
KDAB 191720Z 1918/2018 05006KT P6SM FEW040 SCT150 SCT250
     FM200900 VRB02KT 6SM BR BKN250
     FM201400 VRB03KT P6SM BKN250=

Latest METAR

600
SAUS80 KWBC 201800 RRB
MTRDAB
METAR KDAB 201753Z 23007KT 10SM SCT031 BKN140 24/15 A3008 RMK AO2 SLP185
T02390150 10244 20128 58021


USA.gov is the U.S. government's official web portal to all federal, state and local government web resources and services.